sensor_id;sensor_type;location;lat;lon;timestamp;P1;durP1;ratioP1;P2;durP2;ratioP2
23044;SDS011;11690;51.716;23.066;2022-10-26T00:00:23;27.52;;;19.27;;
23044;SDS011;11690;51.716;23.066;2022-10-26T00:03:11;30.05;;;18.83;;
23044;SDS011;11690;51.716;23.066;2022-10-26T00:05:38;28.20;;;19.63;;
23044;SDS011;11690;51.716;23.066;2022-10-26T00:08:06;29.98;;;19.65;;
23044;SDS011;11690;51.716;23.066;2022-10-26T00:10:36;30.50;;;20.80;;
23044;SDS011;11690;51.716;23.066;2022-10-26T00:13:04;32.20;;;20.13;;
23044;SDS011;11690;51.716;23.066;2022-10-26T00:15:32;29.77;;;20.30;;
23044;SDS011;11690;51.716;23.066;2022-10-26T00:17:59;30.60;;;20.38;;
23044;SDS011;11690;51.716;23.066;2022-10-26T00:20:25;27.95;;;19.45;;
23044;SDS011;11690;51.716;23.066;2022-10-26T00:22:53;28.63;;;20.25;;
23044;SDS011;11690;51.716;23.066;2022-10-26T00:25:20;30.25;;;19.77;;
23044;SDS011;11690;51.716;23.066;2022-10-26T00:27:47;29.38;;;20.27;;
23044;SDS011;11690;51.716;23.066;2022-10-26T00:30:14;31.58;;;19.70;;
23044;SDS011;11690;51.716;23.066;2022-10-26T00:32:41;30.67;;;20.35;;
23044;SDS011;11690;51.716;23.066;2022-10-26T00:35:08;29.20;;;19.35;;
23044;SDS011;11690;51.716;23.066;2022-10-26T00:37:53;26.10;;;20.55;;
23044;SDS011;11690;51.716;23.066;2022-10-26T00:40:21;30.85;;;21.70;;
23044;SDS011;11690;51.716;23.066;2022-10-26T00:42:53;29.45;;;20.83;;
23044;SDS011;11690;51.716;23.066;2022-10-26T00:45:24;34.67;;;21.50;;
23044;SDS011;11690;51.716;23.066;2022-10-26T00:47:55;30.02;;;22.02;;
23044;SDS011;11690;51.716;23.066;2022-10-26T00:50:28;38.45;;;21.38;;
23044;SDS011;11690;51.716;23.066;2022-10-26T00:52:58;30.15;;;20.83;;
23044;SDS011;11690;51.716;23.066;2022-10-26T00:55:27;34.60;;;20.48;;
23044;SDS011;11690;51.716;23.066;2022-10-26T00:57:59;32.30;;;22.05;;
23044;SDS011;11690;51.716;23.066;2022-10-26T01:00:28;34.05;;;22.48;;
23044;SDS011;11690;51.716;23.066;2022-10-26T01:02:56;37.50;;;23.85;;
23044;SDS011;11690;51.716;23.066;2022-10-26T01:05:23;38.88;;;24.17;;
23044;SDS011;11690;51.716;23.066;2022-10-26T01:07:51;36.33;;;23.98;;
23044;SDS011;11690;51.716;23.066;2022-10-26T01:10:19;40.60;;;27.33;;
23044;SDS011;11690;51.716;23.066;2022-10-26T01:12:46;35.70;;;24.92;;
23044;SDS011;11690;51.716;23.066;2022-10-26T01:15:13;45.72;;;26.90;;
23044;SDS011;11690;51.716;23.066;2022-10-26T01:22:50;37.22;;;25.48;;
23044;SDS011;11690;51.716;23.066;2022-10-26T01:27:50;40.58;;;26.23;;
23044;SDS011;11690;51.716;23.066;2022-10-26T01:30:19;42.85;;;26.33;;
23044;SDS011;11690;51.716;23.066;2022-10-26T01:40:58;42.50;;;29.42;;
23044;SDS011;11690;51.716;23.066;2022-10-26T01:43:27;46.40;;;30.25;;
23044;SDS011;11690;51.716;23.066;2022-10-26T01:45:57;40.95;;;27.60;;
23044;SDS011;11690;51.716;23.066;2022-10-26T01:48:24;47.30;;;30.48;;
23044;SDS011;11690;51.716;23.066;2022-10-26T01:50:52;46.55;;;29.90;;
23044;SDS011;11690;51.716;23.066;2022-10-26T01:53:19;47.65;;;27.77;;
23044;SDS011;11690;51.716;23.066;2022-10-26T01:55:48;42.83;;;29.38;;
23044;SDS011;11690;51.716;23.066;2022-10-26T02:12:06;35.88;;;26.90;;
23044;SDS011;11690;51.716;23.066;2022-10-26T02:14:44;35.88;;;26.20;;
23044;SDS011;11690;51.716;23.066;2022-10-26T02:20:21;42.03;;;28.58;;
23044;SDS011;11690;51.716;23.066;2022-10-26T02:22:51;38.15;;;26.13;;
23044;SDS011;11690;51.716;23.066;2022-10-26T02:25:21;36.80;;;25.98;;
23044;SDS011;11690;51.716;23.066;2022-10-26T02:27:50;37.25;;;26.05;;
23044;SDS011;11690;51.716;23.066;2022-10-26T02:30:21;38.17;;;25.60;;
23044;SDS011;11690;51.716;23.066;2022-10-26T02:32:49;39.42;;;27.50;;
23044;SDS011;11690;51.716;23.066;2022-10-26T02:35:18;37.83;;;26.33;;
23044;SDS011;11690;51.716;23.066;2022-10-26T02:37:47;41.08;;;26.95;;
23044;SDS011;11690;51.716;23.066;2022-10-26T02:40:18;46.53;;;26.83;;
23044;SDS011;11690;51.716;23.066;2022-10-26T02:42:48;43.40;;;28.00;;
23044;SDS011;11690;51.716;23.066;2022-10-26T02:45:16;44.35;;;28.40;;
23044;SDS011;11690;51.716;23.066;2022-10-26T02:47:46;40.15;;;27.40;;
23044;SDS011;11690;51.716;23.066;2022-10-26T02:50:14;45.00;;;28.58;;
23044;SDS011;11690;51.716;23.066;2022-10-26T02:55:19;50.17;;;30.25;;
23044;SDS011;11690;51.716;23.066;2022-10-26T02:57:50;45.38;;;30.65;;
23044;SDS011;11690;51.716;23.066;2022-10-26T03:00:20;50.83;;;31.42;;
23044;SDS011;11690;51.716;23.066;2022-10-26T03:02:51;46.58;;;30.55;;
23044;SDS011;11690;51.716;23.066;2022-10-26T03:05:27;42.13;;;29.00;;
23044;SDS011;11690;51.716;23.066;2022-10-26T03:07:55;51.72;;;31.58;;
23044;SDS011;11690;51.716;23.066;2022-10-26T03:10:24;45.65;;;30.20;;
23044;SDS011;11690;51.716;23.066;2022-10-26T03:12:51;46.97;;;29.67;;
23044;SDS011;11690;51.716;23.066;2022-10-26T03:15:19;49.90;;;30.73;;
23044;SDS011;11690;51.716;23.066;2022-10-26T03:17:46;44.38;;;31.30;;
23044;SDS011;11690;51.716;23.066;2022-10-26T03:20:14;54.13;;;31.13;;
23044;SDS011;11690;51.716;23.066;2022-10-26T03:22:41;53.55;;;31.45;;
23044;SDS011;11690;51.716;23.066;2022-10-26T03:25:08;47.95;;;31.88;;
23044;SDS011;11690;51.716;23.066;2022-10-26T03:27:35;46.20;;;29.90;;
23044;SDS011;11690;51.716;23.066;2022-10-26T03:30:03;49.78;;;31.58;;
23044;SDS011;11690;51.716;23.066;2022-10-26T03:32:31;50.90;;;31.73;;
23044;SDS011;11690;51.716;23.066;2022-10-26T03:34:58;50.55;;;32.78;;
23044;SDS011;11690;51.716;23.066;2022-10-26T03:37:25;60.72;;;37.45;;
23044;SDS011;11690;51.716;23.066;2022-10-26T03:39:52;63.25;;;35.50;;
23044;SDS011;11690;51.716;23.066;2022-10-26T03:42:19;51.70;;;32.25;;
23044;SDS011;11690;51.716;23.066;2022-10-26T03:44:46;54.45;;;32.05;;
23044;SDS011;11690;51.716;23.066;2022-10-26T03:47:13;54.05;;;32.97;;
23044;SDS011;11690;51.716;23.066;2022-10-26T03:49:40;55.05;;;33.10;;
23044;SDS011;11690;51.716;23.066;2022-10-26T03:52:07;49.50;;;31.90;;
23044;SDS011;11690;51.716;23.066;2022-10-26T03:54:35;51.78;;;31.65;;
23044;SDS011;11690;51.716;23.066;2022-10-26T03:57:02;55.72;;;32.60;;
23044;SDS011;11690;51.716;23.066;2022-10-26T03:59:29;57.35;;;31.70;;
23044;SDS011;11690;51.716;23.066;2022-10-26T04:01:56;47.90;;;31.77;;
23044;SDS011;11690;51.716;23.066;2022-10-26T04:04:24;52.22;;;30.55;;
23044;SDS011;11690;51.716;23.066;2022-10-26T04:06:51;46.53;;;30.45;;
23044;SDS011;11690;51.716;23.066;2022-10-26T04:09:18;48.50;;;30.58;;
23044;SDS011;11690;51.716;23.066;2022-10-26T04:11:45;50.05;;;31.60;;
23044;SDS011;11690;51.716;23.066;2022-10-26T04:14:12;51.25;;;31.15;;
23044;SDS011;11690;51.716;23.066;2022-10-26T04:16:39;50.00;;;31.50;;
23044;SDS011;11690;51.716;23.066;2022-10-26T04:19:06;51.13;;;29.80;;
23044;SDS011;11690;51.716;23.066;2022-10-26T04:21:33;46.25;;;28.60;;
23044;SDS011;11690;51.716;23.066;2022-10-26T04:24:01;39.55;;;27.05;;
23044;SDS011;11690;51.716;23.066;2022-10-26T04:26:28;44.47;;;26.80;;
23044;SDS011;11690;51.716;23.066;2022-10-26T04:28:55;42.95;;;27.23;;
23044;SDS011;11690;51.716;23.066;2022-10-26T04:31:22;45.40;;;26.85;;
23044;SDS011;11690;51.716;23.066;2022-10-26T04:33:49;38.75;;;26.27;;
23044;SDS011;11690;51.716;23.066;2022-10-26T04:36:16;39.63;;;24.17;;
23044;SDS011;11690;51.716;23.066;2022-10-26T04:38:43;40.08;;;25.98;;
23044;SDS011;11690;51.716;23.066;2022-10-26T04:41:10;39.78;;;24.67;;
23044;SDS011;11690;51.716;23.066;2022-10-26T04:43:37;38.10;;;24.77;;
23044;SDS011;11690;51.716;23.066;2022-10-26T04:46:04;40.13;;;25.33;;
23044;SDS011;11690;51.716;23.066;2022-10-26T04:48:32;38.53;;;25.98;;
23044;SDS011;11690;51.716;23.066;2022-10-26T04:50:59;44.20;;;26.60;;
23044;SDS011;11690;51.716;23.066;2022-10-26T04:53:26;44.55;;;25.58;;
23044;SDS011;11690;51.716;23.066;2022-10-26T04:55:57;43.47;;;26.30;;
23044;SDS011;11690;51.716;23.066;2022-10-26T04:58:25;39.58;;;26.85;;
23044;SDS011;11690;51.716;23.066;2022-10-26T05:00:53;41.30;;;25.73;;
23044;SDS011;11690;51.716;23.066;2022-10-26T05:03:20;43.20;;;27.85;;
23044;SDS011;11690;51.716;23.066;2022-10-26T05:05:47;47.65;;;27.60;;
23044;SDS011;11690;51.716;23.066;2022-10-26T05:08:15;48.25;;;28.15;;
23044;SDS011;11690;51.716;23.066;2022-10-26T05:10:42;47.85;;;31.10;;
23044;SDS011;11690;51.716;23.066;2022-10-26T05:13:13;39.80;;;26.48;;
23044;SDS011;11690;51.716;23.066;2022-10-26T05:15:40;43.22;;;26.48;;
23044;SDS011;11690;51.716;23.066;2022-10-26T05:18:07;43.45;;;27.80;;
23044;SDS011;11690;51.716;23.066;2022-10-26T05:20:35;45.33;;;27.90;;
23044;SDS011;11690;51.716;23.066;2022-10-26T05:23:03;45.53;;;27.92;;
23044;SDS011;11690;51.716;23.066;2022-10-26T05:25:33;42.35;;;27.40;;
23044;SDS011;11690;51.716;23.066;2022-10-26T05:28:02;45.45;;;26.52;;
23044;SDS011;11690;51.716;23.066;2022-10-26T05:30:30;47.20;;;27.92;;
23044;SDS011;11690;51.716;23.066;2022-10-26T05:32:59;45.13;;;27.63;;
23044;SDS011;11690;51.716;23.066;2022-10-26T05:35:28;41.72;;;27.45;;
23044;SDS011;11690;51.716;23.066;2022-10-26T05:37:56;47.80;;;29.05;;
23044;SDS011;11690;51.716;23.066;2022-10-26T05:40:23;41.47;;;27.45;;
23044;SDS011;11690;51.716;23.066;2022-10-26T05:42:51;41.67;;;27.67;;
23044;SDS011;11690;51.716;23.066;2022-10-26T05:45:18;44.97;;;28.23;;
23044;SDS011;11690;51.716;23.066;2022-10-26T05:47:46;43.83;;;28.48;;
23044;SDS011;11690;51.716;23.066;2022-10-26T05:50:13;46.15;;;31.17;;
23044;SDS011;11690;51.716;23.066;2022-10-26T05:52:41;45.88;;;29.30;;
23044;SDS011;11690;51.716;23.066;2022-10-26T05:55:10;53.90;;;29.70;;
23044;SDS011;11690;51.716;23.066;2022-10-26T05:57:41;47.00;;;29.45;;
23044;SDS011;11690;51.716;23.066;2022-10-26T06:00:14;47.28;;;29.90;;
23044;SDS011;11690;51.716;23.066;2022-10-26T06:08:23;44.13;;;28.08;;
23044;SDS011;11690;51.716;23.066;2022-10-26T06:10:51;44.42;;;29.13;;
23044;SDS011;11690;51.716;23.066;2022-10-26T06:13:20;46.40;;;29.60;;
23044;SDS011;11690;51.716;23.066;2022-10-26T06:15:51;48.65;;;29.25;;
23044;SDS011;11690;51.716;23.066;2022-10-26T06:18:35;43.42;;;29.23;;
23044;SDS011;11690;51.716;23.066;2022-10-26T06:29:18;38.92;;;27.17;;
23044;SDS011;11690;51.716;23.066;2022-10-26T06:31:50;48.47;;;28.10;;
23044;SDS011;11690;51.716;23.066;2022-10-26T06:34:20;43.60;;;27.67;;
23044;SDS011;11690;51.716;23.066;2022-10-26T06:36:50;40.25;;;27.02;;
23044;SDS011;11690;51.716;23.066;2022-10-26T06:39:23;44.35;;;29.02;;
23044;SDS011;11690;51.716;23.066;2022-10-26T06:41:51;41.33;;;27.45;;
23044;SDS011;11690;51.716;23.066;2022-10-26T06:44:23;44.40;;;28.23;;
23044;SDS011;11690;51.716;23.066;2022-10-26T06:55:02;44.40;;;31.65;;
23044;SDS011;11690;51.716;23.066;2022-10-26T06:57:34;48.25;;;29.73;;
23044;SDS011;11690;51.716;23.066;2022-10-26T07:00:06;44.92;;;29.45;;
23044;SDS011;11690;51.716;23.066;2022-10-26T07:02:39;49.35;;;30.33;;
23044;SDS011;11690;51.716;23.066;2022-10-26T07:05:06;57.25;;;31.83;;
23044;SDS011;11690;51.716;23.066;2022-10-26T07:07:42;48.53;;;31.52;;
23044;SDS011;11690;51.716;23.066;2022-10-26T07:10:11;53.45;;;31.05;;
23044;SDS011;11690;51.716;23.066;2022-10-26T07:12:39;55.72;;;35.55;;
23044;SDS011;11690;51.716;23.066;2022-10-26T07:15:06;51.55;;;33.97;;
23044;SDS011;11690;51.716;23.066;2022-10-26T07:17:41;59.95;;;35.85;;
23044;SDS011;11690;51.716;23.066;2022-10-26T07:20:11;56.63;;;36.33;;
23044;SDS011;11690;51.716;23.066;2022-10-26T07:22:38;58.97;;;35.15;;
23044;SDS011;11690;51.716;23.066;2022-10-26T07:25:05;58.33;;;34.30;;
23044;SDS011;11690;51.716;23.066;2022-10-26T07:27:33;53.78;;;33.92;;
23044;SDS011;11690;51.716;23.066;2022-10-26T07:30:01;57.85;;;34.78;;
23044;SDS011;11690;51.716;23.066;2022-10-26T07:32:28;54.40;;;32.10;;
23044;SDS011;11690;51.716;23.066;2022-10-26T07:34:56;53.28;;;31.40;;
23044;SDS011;11690;51.716;23.066;2022-10-26T07:37:23;46.38;;;30.05;;
23044;SDS011;11690;51.716;23.066;2022-10-26T07:39:50;47.40;;;31.20;;
23044;SDS011;11690;51.716;23.066;2022-10-26T07:42:17;46.95;;;28.52;;
23044;SDS011;11690;51.716;23.066;2022-10-26T07:44:44;45.30;;;30.48;;
23044;SDS011;11690;51.716;23.066;2022-10-26T07:47:11;46.92;;;28.27;;
23044;SDS011;11690;51.716;23.066;2022-10-26T07:49:38;43.03;;;26.73;;
23044;SDS011;11690;51.716;23.066;2022-10-26T07:52:05;38.05;;;25.45;;
23044;SDS011;11690;51.716;23.066;2022-10-26T07:54:32;36.03;;;23.02;;
23044;SDS011;11690;51.716;23.066;2022-10-26T07:56:59;35.45;;;23.40;;
23044;SDS011;11690;51.716;23.066;2022-10-26T07:59:26;35.83;;;23.67;;
23044;SDS011;11690;51.716;23.066;2022-10-26T08:01:53;35.30;;;25.38;;
23044;SDS011;11690;51.716;23.066;2022-10-26T08:04:21;41.78;;;23.90;;
23044;SDS011;11690;51.716;23.066;2022-10-26T08:06:48;37.13;;;25.90;;
23044;SDS011;11690;51.716;23.066;2022-10-26T08:09:15;37.65;;;25.42;;
23044;SDS011;11690;51.716;23.066;2022-10-26T08:11:42;37.67;;;24.60;;
23044;SDS011;11690;51.716;23.066;2022-10-26T08:14:09;40.55;;;24.55;;
23044;SDS011;11690;51.716;23.066;2022-10-26T08:16:37;33.05;;;21.15;;
23044;SDS011;11690;51.716;23.066;2022-10-26T08:19:06;30.73;;;21.33;;
23044;SDS011;11690;51.716;23.066;2022-10-26T08:21:33;34.63;;;23.42;;
23044;SDS011;11690;51.716;23.066;2022-10-26T08:24:06;32.40;;;23.40;;
23044;SDS011;11690;51.716;23.066;2022-10-26T08:26:33;33.63;;;23.92;;
23044;SDS011;11690;51.716;23.066;2022-10-26T08:29:00;34.92;;;22.40;;
23044;SDS011;11690;51.716;23.066;2022-10-26T08:31:27;34.90;;;21.95;;
23044;SDS011;11690;51.716;23.066;2022-10-26T08:33:54;28.65;;;20.27;;
23044;SDS011;11690;51.716;23.066;2022-10-26T08:36:22;27.75;;;18.30;;
23044;SDS011;11690;51.716;23.066;2022-10-26T08:38:50;35.10;;;19.48;;
23044;SDS011;11690;51.716;23.066;2022-10-26T08:41:23;27.20;;;17.48;;
23044;SDS011;11690;51.716;23.066;2022-10-26T08:43:58;30.48;;;19.65;;
23044;SDS011;11690;51.716;23.066;2022-10-26T08:46:31;28.58;;;18.58;;
23044;SDS011;11690;51.716;23.066;2022-10-26T08:52:04;32.05;;;18.92;;
23044;SDS011;11690;51.716;23.066;2022-10-26T08:54:43;27.60;;;17.73;;
23044;SDS011;11690;51.716;23.066;2022-10-26T08:57:26;28.02;;;19.02;;
23044;SDS011;11690;51.716;23.066;2022-10-26T08:59:59;29.25;;;19.70;;
23044;SDS011;11690;51.716;23.066;2022-10-26T09:02:29;29.00;;;20.33;;
23044;SDS011;11690;51.716;23.066;2022-10-26T09:04:56;27.00;;;17.42;;
23044;SDS011;11690;51.716;23.066;2022-10-26T09:10:19;28.58;;;19.42;;
23044;SDS011;11690;51.716;23.066;2022-10-26T09:13:17;27.42;;;19.00;;
23044;SDS011;11690;51.716;23.066;2022-10-26T09:21:09;25.10;;;16.45;;
23044;SDS011;11690;51.716;23.066;2022-10-26T09:26:34;31.08;;;17.80;;
23044;SDS011;11690;51.716;23.066;2022-10-26T09:29:05;31.70;;;18.92;;
23044;SDS011;11690;51.716;23.066;2022-10-26T09:31:39;29.98;;;17.58;;
23044;SDS011;11690;51.716;23.066;2022-10-26T09:34:45;26.50;;;16.23;;
23044;SDS011;11690;51.716;23.066;2022-10-26T09:37:12;30.40;;;17.08;;
23044;SDS011;11690;51.716;23.066;2022-10-26T09:39:44;26.10;;;15.70;;
23044;SDS011;11690;51.716;23.066;2022-10-26T09:42:25;25.20;;;16.30;;
23044;SDS011;11690;51.716;23.066;2022-10-26T09:45:19;29.58;;;15.88;;
23044;SDS011;11690;51.716;23.066;2022-10-26T09:47:50;20.25;;;13.63;;
23044;SDS011;11690;51.716;23.066;2022-10-26T09:52:51;18.15;;;11.00;;
23044;SDS011;11690;51.716;23.066;2022-10-26T09:55:18;15.40;;;8.32;;
23044;SDS011;11690;51.716;23.066;2022-10-26T09:57:49;14.48;;;7.07;;
23044;SDS011;11690;51.716;23.066;2022-10-26T10:00:18;10.98;;;7.25;;
23044;SDS011;11690;51.716;23.066;2022-10-26T10:02:49;11.57;;;7.78;;
23044;SDS011;11690;51.716;23.066;2022-10-26T10:08:22;12.73;;;7.30;;
23044;SDS011;11690;51.716;23.066;2022-10-26T10:13:23;15.18;;;7.93;;
23044;SDS011;11690;51.716;23.066;2022-10-26T10:15:53;14.38;;;8.73;;
23044;SDS011;11690;51.716;23.066;2022-10-26T10:18:21;14.25;;;8.80;;
23044;SDS011;11690;51.716;23.066;2022-10-26T10:20:58;13.00;;;8.77;;
23044;SDS011;11690;51.716;23.066;2022-10-26T10:23:27;15.88;;;8.30;;
23044;SDS011;11690;51.716;23.066;2022-10-26T10:26:08;13.88;;;9.32;;
23044;SDS011;11690;51.716;23.066;2022-10-26T10:28:39;14.65;;;9.88;;
23044;SDS011;11690;51.716;23.066;2022-10-26T10:31:20;15.05;;;9.25;;
23044;SDS011;11690;51.716;23.066;2022-10-26T10:33:48;15.18;;;8.45;;
23044;SDS011;11690;51.716;23.066;2022-10-26T10:36:16;17.05;;;9.73;;
23044;SDS011;11690;51.716;23.066;2022-10-26T10:38:46;16.95;;;10.70;;
23044;SDS011;11690;51.716;23.066;2022-10-26T10:43:46;18.80;;;10.55;;
23044;SDS011;11690;51.716;23.066;2022-10-26T10:46:19;20.08;;;12.50;;
23044;SDS011;11690;51.716;23.066;2022-10-26T10:48:54;18.92;;;11.95;;
23044;SDS011;11690;51.716;23.066;2022-10-26T10:51:30;19.65;;;11.32;;
23044;SDS011;11690;51.716;23.066;2022-10-26T10:54:02;17.52;;;11.55;;
23044;SDS011;11690;51.716;23.066;2022-10-26T10:56:31;15.32;;;10.68;;
23044;SDS011;11690;51.716;23.066;2022-10-26T11:07:05;13.90;;;10.80;;
23044;SDS011;11690;51.716;23.066;2022-10-26T11:09:33;16.45;;;9.43;;
23044;SDS011;11690;51.716;23.066;2022-10-26T11:12:05;16.98;;;9.80;;
23044;SDS011;11690;51.716;23.066;2022-10-26T11:14:42;15.75;;;10.00;;
23044;SDS011;11690;51.716;23.066;2022-10-26T11:25:19;13.88;;;10.80;;
23044;SDS011;11690;51.716;23.066;2022-10-26T11:28:00;18.90;;;10.85;;
23044;SDS011;11690;51.716;23.066;2022-10-26T11:30:32;19.92;;;10.35;;
23044;SDS011;11690;51.716;23.066;2022-10-26T11:33:03;16.33;;;9.95;;
23044;SDS011;11690;51.716;23.066;2022-10-26T11:38:32;14.88;;;10.48;;
23044;SDS011;11690;51.716;23.066;2022-10-26T11:41:24;17.50;;;10.48;;
23044;SDS011;11690;51.716;23.066;2022-10-26T11:44:10;15.73;;;9.50;;
23044;SDS011;11690;51.716;23.066;2022-10-26T11:46:40;16.70;;;9.35;;
23044;SDS011;11690;51.716;23.066;2022-10-26T11:51:55;20.08;;;9.60;;
23044;SDS011;11690;51.716;23.066;2022-10-26T11:54:36;13.90;;;9.15;;
23044;SDS011;11690;51.716;23.066;2022-10-26T11:57:08;15.20;;;9.95;;
23044;SDS011;11690;51.716;23.066;2022-10-26T11:59:37;14.43;;;9.18;;
23044;SDS011;11690;51.716;23.066;2022-10-26T12:02:14;14.68;;;9.23;;
23044;SDS011;11690;51.716;23.066;2022-10-26T12:04:45;16.92;;;10.98;;
23044;SDS011;11690;51.716;23.066;2022-10-26T12:07:19;16.77;;;9.43;;
23044;SDS011;11690;51.716;23.066;2022-10-26T12:09:49;14.10;;;8.88;;
23044;SDS011;11690;51.716;23.066;2022-10-26T12:14:52;14.95;;;9.10;;
23044;SDS011;11690;51.716;23.066;2022-10-26T12:22:59;13.15;;;8.55;;
23044;SDS011;11690;51.716;23.066;2022-10-26T12:25:26;12.15;;;8.30;;
23044;SDS011;11690;51.716;23.066;2022-10-26T12:27:54;12.50;;;8.88;;
23044;SDS011;11690;51.716;23.066;2022-10-26T12:30:34;13.77;;;8.80;;
23044;SDS011;11690;51.716;23.066;2022-10-26T12:33:03;16.50;;;8.27;;
23044;SDS011;11690;51.716;23.066;2022-10-26T12:35:56;14.70;;;8.35;;
23044;SDS011;11690;51.716;23.066;2022-10-26T12:43:38;12.73;;;8.02;;
23044;SDS011;11690;51.716;23.066;2022-10-26T12:48:49;13.73;;;8.35;;
23044;SDS011;11690;51.716;23.066;2022-10-26T12:56:58;15.00;;;8.73;;
23044;SDS011;11690;51.716;23.066;2022-10-26T13:08:02;13.95;;;8.30;;
23044;SDS011;11690;51.716;23.066;2022-10-26T13:10:32;14.60;;;8.88;;
23044;SDS011;11690;51.716;23.066;2022-10-26T13:13:00;14.38;;;8.32;;
23044;SDS011;11690;51.716;23.066;2022-10-26T13:15:36;16.08;;;9.18;;
23044;SDS011;11690;51.716;23.066;2022-10-26T13:18:08;13.15;;;8.25;;
23044;SDS011;11690;51.716;23.066;2022-10-26T13:20:52;13.05;;;8.55;;
23044;SDS011;11690;51.716;23.066;2022-10-26T13:23:35;11.70;;;8.15;;
23044;SDS011;11690;51.716;23.066;2022-10-26T13:33:50;13.88;;;9.00;;
23044;SDS011;11690;51.716;23.066;2022-10-26T13:36:26;13.45;;;8.70;;
23044;SDS011;11690;51.716;23.066;2022-10-26T13:38:57;13.50;;;8.63;;
23044;SDS011;11690;51.716;23.066;2022-10-26T13:41:31;11.82;;;7.53;;
23044;SDS011;11690;51.716;23.066;2022-10-26T13:44:02;15.85;;;8.57;;
23044;SDS011;11690;51.716;23.066;2022-10-26T13:46:33;14.55;;;8.68;;
23044;SDS011;11690;51.716;23.066;2022-10-26T13:49:04;13.02;;;8.40;;
23044;SDS011;11690;51.716;23.066;2022-10-26T13:51:44;14.70;;;8.55;;
23044;SDS011;11690;51.716;23.066;2022-10-26T13:54:18;12.05;;;8.57;;
23044;SDS011;11690;51.716;23.066;2022-10-26T13:59:36;15.10;;;8.57;;
23044;SDS011;11690;51.716;23.066;2022-10-26T14:02:07;13.35;;;8.93;;
23044;SDS011;11690;51.716;23.066;2022-10-26T14:04:40;16.02;;;9.30;;
23044;SDS011;11690;51.716;23.066;2022-10-26T14:07:10;15.48;;;9.27;;
23044;SDS011;11690;51.716;23.066;2022-10-26T14:09:42;17.65;;;8.60;;
23044;SDS011;11690;51.716;23.066;2022-10-26T14:12:09;15.25;;;8.35;;
23044;SDS011;11690;51.716;23.066;2022-10-26T14:14:36;14.52;;;8.77;;
23044;SDS011;11690;51.716;23.066;2022-10-26T14:17:04;13.95;;;9.07;;
23044;SDS011;11690;51.716;23.066;2022-10-26T14:19:32;14.13;;;8.75;;
23044;SDS011;11690;51.716;23.066;2022-10-26T14:22:01;14.63;;;9.05;;
23044;SDS011;11690;51.716;23.066;2022-10-26T14:27:16;19.23;;;9.80;;
23044;SDS011;11690;51.716;23.066;2022-10-26T14:29:44;14.43;;;9.45;;
23044;SDS011;11690;51.716;23.066;2022-10-26T14:32:31;18.95;;;9.68;;
23044;SDS011;11690;51.716;23.066;2022-10-26T14:34:59;16.13;;;9.75;;
23044;SDS011;11690;51.716;23.066;2022-10-26T14:39:53;20.40;;;9.85;;
23044;SDS011;11690;51.716;23.066;2022-10-26T14:44:47;17.88;;;9.35;;
23044;SDS011;11690;51.716;23.066;2022-10-26T14:47:16;19.55;;;9.88;;
23044;SDS011;11690;51.716;23.066;2022-10-26T14:49:50;17.55;;;9.95;;
23044;SDS011;11690;51.716;23.066;2022-10-26T14:52:52;15.30;;;9.95;;
23044;SDS011;11690;51.716;23.066;2022-10-26T14:55:14;30.83;;;20.63;;
23044;SDS011;11690;51.716;23.066;2022-10-26T14:57:43;21.08;;;14.35;;
23044;SDS011;11690;51.716;23.066;2022-10-26T15:00:22;29.42;;;20.73;;
23044;SDS011;11690;51.716;23.066;2022-10-26T15:02:53;31.60;;;24.08;;
23044;SDS011;11690;51.716;23.066;2022-10-26T15:07:51;48.28;;;37.10;;
23044;SDS011;11690;51.716;23.066;2022-10-26T15:15:57;19.05;;;13.00;;
23044;SDS011;11690;51.716;23.066;2022-10-26T15:18:34;25.17;;;14.52;;
23044;SDS011;11690;51.716;23.066;2022-10-26T15:21:02;24.55;;;15.20;;
23044;SDS011;11690;51.716;23.066;2022-10-26T15:23:41;27.60;;;15.23;;
23044;SDS011;11690;51.716;23.066;2022-10-26T15:26:08;24.65;;;13.20;;
23044;SDS011;11690;51.716;23.066;2022-10-26T15:33:40;68.35;;;29.00;;
23044;SDS011;11690;51.716;23.066;2022-10-26T15:38:40;72.72;;;42.03;;
23044;SDS011;11690;51.716;23.066;2022-10-26T15:41:12;95.85;;;56.65;;
23044;SDS011;11690;51.716;23.066;2022-10-26T15:43:39;162.07;;;52.95;;
23044;SDS011;11690;51.716;23.066;2022-10-26T15:46:07;53.35;;;25.77;;
23044;SDS011;11690;51.716;23.066;2022-10-26T15:48:34;66.35;;;30.55;;
23044;SDS011;11690;51.716;23.066;2022-10-26T15:51:02;58.20;;;27.67;;
23044;SDS011;11690;51.716;23.066;2022-10-26T15:53:28;79.65;;;36.80;;
23044;SDS011;11690;51.716;23.066;2022-10-26T15:55:57;33.05;;;18.58;;
23044;SDS011;11690;51.716;23.066;2022-10-26T15:58:25;42.50;;;23.23;;
23044;SDS011;11690;51.716;23.066;2022-10-26T16:00:53;34.53;;;19.80;;
23044;SDS011;11690;51.716;23.066;2022-10-26T16:03:23;25.70;;;16.15;;
23044;SDS011;11690;51.716;23.066;2022-10-26T16:05:56;35.50;;;19.35;;
23044;SDS011;11690;51.716;23.066;2022-10-26T16:08:25;41.15;;;21.42;;
23044;SDS011;11690;51.716;23.066;2022-10-26T16:10:53;104.65;;;34.60;;
23044;SDS011;11690;51.716;23.066;2022-10-26T16:13:20;77.93;;;28.88;;
23044;SDS011;11690;51.716;23.066;2022-10-26T16:15:47;67.38;;;24.40;;
23044;SDS011;11690;51.716;23.066;2022-10-26T16:18:15;40.95;;;22.55;;
23044;SDS011;11690;51.716;23.066;2022-10-26T16:20:44;34.83;;;18.63;;
23044;SDS011;11690;51.716;23.066;2022-10-26T16:23:11;34.85;;;19.85;;
23044;SDS011;11690;51.716;23.066;2022-10-26T16:25:43;35.70;;;22.08;;
23044;SDS011;11690;51.716;23.066;2022-10-26T16:28:12;31.63;;;17.63;;
23044;SDS011;11690;51.716;23.066;2022-10-26T16:30:40;33.58;;;18.73;;
23044;SDS011;11690;51.716;23.066;2022-10-26T16:33:08;34.45;;;18.88;;
23044;SDS011;11690;51.716;23.066;2022-10-26T16:35:35;28.58;;;19.25;;
23044;SDS011;11690;51.716;23.066;2022-10-26T16:38:02;31.25;;;18.48;;
23044;SDS011;11690;51.716;23.066;2022-10-26T16:40:29;31.50;;;19.20;;
23044;SDS011;11690;51.716;23.066;2022-10-26T16:42:56;53.42;;;32.03;;
23044;SDS011;11690;51.716;23.066;2022-10-26T16:45:23;38.15;;;21.13;;
23044;SDS011;11690;51.716;23.066;2022-10-26T16:47:50;29.35;;;15.18;;
23044;SDS011;11690;51.716;23.066;2022-10-26T16:50:17;26.17;;;16.40;;
23044;SDS011;11690;51.716;23.066;2022-10-26T16:52:46;37.45;;;21.70;;
23044;SDS011;11690;51.716;23.066;2022-10-26T16:55:13;34.10;;;19.50;;
23044;SDS011;11690;51.716;23.066;2022-10-26T16:57:41;44.65;;;23.25;;
23044;SDS011;11690;51.716;23.066;2022-10-26T17:00:08;42.85;;;22.13;;
23044;SDS011;11690;51.716;23.066;2022-10-26T17:02:35;43.40;;;23.30;;
23044;SDS011;11690;51.716;23.066;2022-10-26T17:05:03;59.03;;;31.35;;
23044;SDS011;11690;51.716;23.066;2022-10-26T17:07:33;49.65;;;26.42;;
23044;SDS011;11690;51.716;23.066;2022-10-26T17:10:01;53.17;;;27.17;;
23044;SDS011;11690;51.716;23.066;2022-10-26T17:12:28;93.57;;;44.03;;
23044;SDS011;11690;51.716;23.066;2022-10-26T17:14:55;48.20;;;28.77;;